sensor_id;sensor_type;location;lat;lon;timestamp;P1;durP1;ratioP1;P2;durP2;ratioP2
9473;SDS011;8865;47.636;7.692;2022-12-05T00:01:15;17.77;;;12.37;;
9473;SDS011;8865;47.636;7.692;2022-12-05T00:03:42;15.80;;;11.40;;
9473;SDS011;8865;47.636;7.692;2022-12-05T00:06:08;15.10;;;11.17;;
9473;SDS011;8865;47.636;7.692;2022-12-05T00:08:34;15.43;;;11.60;;
9473;SDS011;8865;47.636;7.692;2022-12-05T00:10:59;14.93;;;11.17;;
9473;SDS011;8865;47.636;7.692;2022-12-05T00:13:25;16.70;;;11.87;;
9473;SDS011;8865;47.636;7.692;2022-12-05T00:15:51;15.97;;;12.07;;
9473;SDS011;8865;47.636;7.692;2022-12-05T00:18:17;16.87;;;11.33;;
9473;SDS011;8865;47.636;7.692;2022-12-05T00:20:44;16.13;;;11.57;;
9473;SDS011;8865;47.636;7.692;2022-12-05T00:23:11;17.83;;;11.57;;
9473;SDS011;8865;47.636;7.692;2022-12-05T00:25:37;15.63;;;11.63;;
9473;SDS011;8865;47.636;7.692;2022-12-05T00:28:03;16.50;;;12.00;;
9473;SDS011;8865;47.636;7.692;2022-12-05T00:30:29;14.00;;;11.00;;
9473;SDS011;8865;47.636;7.692;2022-12-05T00:32:56;15.87;;;11.50;;
9473;SDS011;8865;47.636;7.692;2022-12-05T00:35:22;13.87;;;10.57;;
9473;SDS011;8865;47.636;7.692;2022-12-05T00:37:48;14.47;;;11.40;;
9473;SDS011;8865;47.636;7.692;2022-12-05T00:40:14;15.00;;;10.73;;
9473;SDS011;8865;47.636;7.692;2022-12-05T00:42:40;15.73;;;11.33;;
9473;SDS011;8865;47.636;7.692;2022-12-05T00:45:06;15.90;;;11.23;;
9473;SDS011;8865;47.636;7.692;2022-12-05T00:47:33;13.87;;;11.00;;
9473;SDS011;8865;47.636;7.692;2022-12-05T00:50:00;14.60;;;10.70;;
9473;SDS011;8865;47.636;7.692;2022-12-05T00:52:27;15.57;;;11.50;;
9473;SDS011;8865;47.636;7.692;2022-12-05T00:54:53;17.50;;;11.47;;
9473;SDS011;8865;47.636;7.692;2022-12-05T00:57:18;15.93;;;10.93;;
9473;SDS011;8865;47.636;7.692;2022-12-05T00:59:44;15.23;;;10.93;;
9473;SDS011;8865;47.636;7.692;2022-12-05T01:02:10;14.57;;;11.43;;
9473;SDS011;8865;47.636;7.692;2022-12-05T01:04:36;16.33;;;11.77;;
9473;SDS011;8865;47.636;7.692;2022-12-05T01:07:02;15.13;;;10.83;;
9473;SDS011;8865;47.636;7.692;2022-12-05T01:09:28;15.27;;;11.23;;
9473;SDS011;8865;47.636;7.692;2022-12-05T01:11:54;16.93;;;11.47;;
9473;SDS011;8865;47.636;7.692;2022-12-05T01:14:21;13.13;;;10.40;;
9473;SDS011;8865;47.636;7.692;2022-12-05T01:16:49;16.10;;;11.83;;
9473;SDS011;8865;47.636;7.692;2022-12-05T01:19:17;16.73;;;11.23;;
9473;SDS011;8865;47.636;7.692;2022-12-05T01:21:54;16.23;;;11.27;;
9473;SDS011;8865;47.636;7.692;2022-12-05T01:24:21;16.83;;;11.50;;
9473;SDS011;8865;47.636;7.692;2022-12-05T01:26:48;14.83;;;11.30;;
9473;SDS011;8865;47.636;7.692;2022-12-05T01:29:15;16.70;;;11.90;;
9473;SDS011;8865;47.636;7.692;2022-12-05T01:31:43;15.77;;;11.10;;
9473;SDS011;8865;47.636;7.692;2022-12-05T01:34:10;15.00;;;11.77;;
9473;SDS011;8865;47.636;7.692;2022-12-05T01:36:39;16.30;;;10.67;;
9473;SDS011;8865;47.636;7.692;2022-12-05T01:39:06;16.13;;;11.37;;
9473;SDS011;8865;47.636;7.692;2022-12-05T01:41:34;15.10;;;11.43;;
9473;SDS011;8865;47.636;7.692;2022-12-05T01:44:06;14.23;;;10.97;;
9473;SDS011;8865;47.636;7.692;2022-12-05T01:46:48;15.37;;;11.47;;
9473;SDS011;8865;47.636;7.692;2022-12-05T01:49:22;15.83;;;11.70;;
9473;SDS011;8865;47.636;7.692;2022-12-05T01:52:15;15.10;;;10.80;;
9473;SDS011;8865;47.636;7.692;2022-12-05T01:54:44;15.07;;;11.27;;
9473;SDS011;8865;47.636;7.692;2022-12-05T01:57:12;15.77;;;11.97;;
9473;SDS011;8865;47.636;7.692;2022-12-05T01:59:41;17.37;;;11.37;;
9473;SDS011;8865;47.636;7.692;2022-12-05T02:02:10;14.93;;;10.50;;
9473;SDS011;8865;47.636;7.692;2022-12-05T02:04:38;14.67;;;10.20;;
9473;SDS011;8865;47.636;7.692;2022-12-05T02:07:10;14.07;;;10.60;;
9473;SDS011;8865;47.636;7.692;2022-12-05T02:09:36;14.07;;;10.70;;
9473;SDS011;8865;47.636;7.692;2022-12-05T02:12:02;13.80;;;9.97;;
9473;SDS011;8865;47.636;7.692;2022-12-05T02:18:07;15.10;;;10.17;;
9473;SDS011;8865;47.636;7.692;2022-12-05T02:30:59;14.97;;;9.90;;
9473;SDS011;8865;47.636;7.692;2022-12-05T02:39:02;12.57;;;9.87;;
9473;SDS011;8865;47.636;7.692;2022-12-05T02:44:24;13.50;;;9.53;;
9473;SDS011;8865;47.636;7.692;2022-12-05T02:46:58;13.70;;;9.67;;
9473;SDS011;8865;47.636;7.692;2022-12-05T02:49:27;15.17;;;10.70;;
9473;SDS011;8865;47.636;7.692;2022-12-05T02:51:57;13.97;;;9.67;;
9473;SDS011;8865;47.636;7.692;2022-12-05T02:54:26;13.90;;;9.70;;
9473;SDS011;8865;47.636;7.692;2022-12-05T02:57:01;11.90;;;8.97;;
9473;SDS011;8865;47.636;7.692;2022-12-05T02:59:28;12.40;;;9.80;;
9473;SDS011;8865;47.636;7.692;2022-12-05T03:01:54;14.47;;;10.20;;
9473;SDS011;8865;47.636;7.692;2022-12-05T03:04:21;11.67;;;9.10;;
9473;SDS011;8865;47.636;7.692;2022-12-05T03:06:53;13.03;;;9.43;;
9473;SDS011;8865;47.636;7.692;2022-12-05T03:09:32;15.23;;;10.47;;
9473;SDS011;8865;47.636;7.692;2022-12-05T03:12:20;13.20;;;9.57;;
9473;SDS011;8865;47.636;7.692;2022-12-05T03:14:59;12.83;;;9.77;;
9473;SDS011;8865;47.636;7.692;2022-12-05T03:17:35;13.60;;;9.77;;
9473;SDS011;8865;47.636;7.692;2022-12-05T03:20:18;13.80;;;10.27;;
9473;SDS011;8865;47.636;7.692;2022-12-05T03:22:54;14.00;;;10.67;;
9473;SDS011;8865;47.636;7.692;2022-12-05T03:25:45;13.80;;;10.60;;
9473;SDS011;8865;47.636;7.692;2022-12-05T03:28:22;14.57;;;10.37;;
9473;SDS011;8865;47.636;7.692;2022-12-05T03:30:55;13.83;;;10.20;;
9473;SDS011;8865;47.636;7.692;2022-12-05T03:33:28;15.50;;;9.80;;
9473;SDS011;8865;47.636;7.692;2022-12-05T03:36:01;11.03;;;8.50;;
9473;SDS011;8865;47.636;7.692;2022-12-05T03:38:51;11.97;;;9.23;;
9473;SDS011;8865;47.636;7.692;2022-12-05T03:41:37;11.80;;;9.47;;
9473;SDS011;8865;47.636;7.692;2022-12-05T03:44:10;12.60;;;9.33;;
9473;SDS011;8865;47.636;7.692;2022-12-05T03:46:46;11.77;;;8.87;;
9473;SDS011;8865;47.636;7.692;2022-12-05T03:49:20;11.67;;;9.00;;
9473;SDS011;8865;47.636;7.692;2022-12-05T03:54:31;11.43;;;8.83;;
9473;SDS011;8865;47.636;7.692;2022-12-05T03:57:10;13.37;;;9.13;;
9473;SDS011;8865;47.636;7.692;2022-12-05T04:02:34;11.23;;;9.03;;
9473;SDS011;8865;47.636;7.692;2022-12-05T04:07:58;12.17;;;9.10;;
9473;SDS011;8865;47.636;7.692;2022-12-05T04:10:30;12.37;;;8.93;;
9473;SDS011;8865;47.636;7.692;2022-12-05T04:12:59;12.50;;;8.57;;
9473;SDS011;8865;47.636;7.692;2022-12-05T04:15:44;13.37;;;9.47;;
9473;SDS011;8865;47.636;7.692;2022-12-05T04:18:35;11.77;;;9.10;;
9473;SDS011;8865;47.636;7.692;2022-12-05T04:21:04;10.93;;;8.00;;
9473;SDS011;8865;47.636;7.692;2022-12-05T04:23:50;11.97;;;7.87;;
9473;SDS011;8865;47.636;7.692;2022-12-05T04:26:37;11.07;;;7.80;;
9473;SDS011;8865;47.636;7.692;2022-12-05T04:29:13;10.37;;;7.73;;
9473;SDS011;8865;47.636;7.692;2022-12-05T04:31:44;10.10;;;7.87;;
9473;SDS011;8865;47.636;7.692;2022-12-05T04:34:16;9.63;;;7.50;;
9473;SDS011;8865;47.636;7.692;2022-12-05T04:36:47;10.00;;;7.40;;
9473;SDS011;8865;47.636;7.692;2022-12-05T04:39:20;9.47;;;7.50;;
9473;SDS011;8865;47.636;7.692;2022-12-05T04:41:51;10.00;;;8.03;;
9473;SDS011;8865;47.636;7.692;2022-12-05T04:44:27;10.07;;;8.03;;
9473;SDS011;8865;47.636;7.692;2022-12-05T04:47:09;9.87;;;7.53;;
9473;SDS011;8865;47.636;7.692;2022-12-05T04:49:39;11.23;;;8.00;;
9473;SDS011;8865;47.636;7.692;2022-12-05T04:52:07;9.67;;;8.07;;
9473;SDS011;8865;47.636;7.692;2022-12-05T04:54:58;10.23;;;7.63;;
9473;SDS011;8865;47.636;7.692;2022-12-05T04:57:28;10.73;;;8.07;;
9473;SDS011;8865;47.636;7.692;2022-12-05T04:59:58;9.33;;;7.50;;
9473;SDS011;8865;47.636;7.692;2022-12-05T05:02:30;12.20;;;7.83;;
9473;SDS011;8865;47.636;7.692;2022-12-05T05:05:02;9.17;;;7.27;;
9473;SDS011;8865;47.636;7.692;2022-12-05T05:07:41;9.67;;;8.00;;
9473;SDS011;8865;47.636;7.692;2022-12-05T05:10:13;9.93;;;7.70;;
9473;SDS011;8865;47.636;7.692;2022-12-05T05:12:42;9.13;;;7.30;;
9473;SDS011;8865;47.636;7.692;2022-12-05T05:15:08;10.83;;;7.80;;
9473;SDS011;8865;47.636;7.692;2022-12-05T05:17:34;9.57;;;8.00;;
9473;SDS011;8865;47.636;7.692;2022-12-05T05:20:00;11.70;;;8.40;;
9473;SDS011;8865;47.636;7.692;2022-12-05T05:22:47;10.47;;;8.77;;
9473;SDS011;8865;47.636;7.692;2022-12-05T05:25:14;10.70;;;8.33;;
9473;SDS011;8865;47.636;7.692;2022-12-05T05:27:40;9.77;;;7.70;;
9473;SDS011;8865;47.636;7.692;2022-12-05T05:30:06;10.23;;;7.37;;
9473;SDS011;8865;47.636;7.692;2022-12-05T05:32:32;11.90;;;7.97;;
9473;SDS011;8865;47.636;7.692;2022-12-05T05:34:58;10.03;;;8.20;;
9473;SDS011;8865;47.636;7.692;2022-12-05T05:37:24;9.47;;;7.80;;
9473;SDS011;8865;47.636;7.692;2022-12-05T05:39:50;15.93;;;12.77;;
9473;SDS011;8865;47.636;7.692;2022-12-05T05:42:16;17.60;;;13.63;;
9473;SDS011;8865;47.636;7.692;2022-12-05T05:44:42;9.57;;;8.00;;
9473;SDS011;8865;47.636;7.692;2022-12-05T05:47:08;14.27;;;9.83;;
9473;SDS011;8865;47.636;7.692;2022-12-05T05:49:35;12.07;;;9.13;;
9473;SDS011;8865;47.636;7.692;2022-12-05T05:52:01;11.90;;;9.23;;
9473;SDS011;8865;47.636;7.692;2022-12-05T05:54:27;11.87;;;9.00;;
9473;SDS011;8865;47.636;7.692;2022-12-05T05:56:53;11.13;;;8.27;;
9473;SDS011;8865;47.636;7.692;2022-12-05T05:59:19;11.23;;;8.40;;
9473;SDS011;8865;47.636;7.692;2022-12-05T06:01:45;10.30;;;8.70;;
9473;SDS011;8865;47.636;7.692;2022-12-05T06:04:11;10.23;;;7.93;;
9473;SDS011;8865;47.636;7.692;2022-12-05T06:06:37;11.50;;;8.70;;
9473;SDS011;8865;47.636;7.692;2022-12-05T06:09:05;11.47;;;8.63;;
9473;SDS011;8865;47.636;7.692;2022-12-05T06:11:32;10.80;;;8.17;;
9473;SDS011;8865;47.636;7.692;2022-12-05T06:13:58;11.53;;;8.37;;
9473;SDS011;8865;47.636;7.692;2022-12-05T06:16:26;11.60;;;8.77;;
9473;SDS011;8865;47.636;7.692;2022-12-05T06:18:53;12.03;;;8.70;;
9473;SDS011;8865;47.636;7.692;2022-12-05T06:21:19;12.73;;;9.40;;
9473;SDS011;8865;47.636;7.692;2022-12-05T06:23:46;12.57;;;9.33;;
9473;SDS011;8865;47.636;7.692;2022-12-05T06:26:13;12.73;;;9.50;;
9473;SDS011;8865;47.636;7.692;2022-12-05T06:28:43;13.40;;;9.20;;
9473;SDS011;8865;47.636;7.692;2022-12-05T06:31:11;9.93;;;8.00;;
9473;SDS011;8865;47.636;7.692;2022-12-05T06:33:40;11.10;;;8.13;;
9473;SDS011;8865;47.636;7.692;2022-12-05T06:36:10;18.33;;;12.00;;
9473;SDS011;8865;47.636;7.692;2022-12-05T06:38:39;12.50;;;9.23;;
9473;SDS011;8865;47.636;7.692;2022-12-05T06:41:06;13.53;;;9.80;;
9473;SDS011;8865;47.636;7.692;2022-12-05T06:43:34;13.37;;;9.73;;
9473;SDS011;8865;47.636;7.692;2022-12-05T06:46:03;15.03;;;10.07;;
9473;SDS011;8865;47.636;7.692;2022-12-05T06:48:33;16.53;;;11.17;;
9473;SDS011;8865;47.636;7.692;2022-12-05T06:50:59;17.27;;;12.83;;
9473;SDS011;8865;47.636;7.692;2022-12-05T06:53:25;18.33;;;12.63;;
9473;SDS011;8865;47.636;7.692;2022-12-05T06:55:59;16.77;;;11.77;;
9473;SDS011;8865;47.636;7.692;2022-12-05T06:58:27;14.83;;;10.47;;
9473;SDS011;8865;47.636;7.692;2022-12-05T07:00:53;16.27;;;11.00;;
9473;SDS011;8865;47.636;7.692;2022-12-05T07:03:38;15.73;;;11.17;;
9473;SDS011;8865;47.636;7.692;2022-12-05T07:06:05;15.03;;;11.37;;
9473;SDS011;8865;47.636;7.692;2022-12-05T07:08:32;17.17;;;11.97;;
9473;SDS011;8865;47.636;7.692;2022-12-05T07:10:59;15.30;;;12.03;;
9473;SDS011;8865;47.636;7.692;2022-12-05T07:13:25;15.87;;;11.03;;
9473;SDS011;8865;47.636;7.692;2022-12-05T07:15:51;17.03;;;11.00;;
9473;SDS011;8865;47.636;7.692;2022-12-05T07:18:17;15.37;;;11.00;;
9473;SDS011;8865;47.636;7.692;2022-12-05T07:20:43;15.73;;;10.73;;
9473;SDS011;8865;47.636;7.692;2022-12-05T07:23:10;13.93;;;10.20;;
9473;SDS011;8865;47.636;7.692;2022-12-05T07:25:39;12.77;;;10.00;;
9473;SDS011;8865;47.636;7.692;2022-12-05T07:28:05;14.17;;;10.40;;
9473;SDS011;8865;47.636;7.692;2022-12-05T07:30:31;12.57;;;9.83;;
9473;SDS011;8865;47.636;7.692;2022-12-05T07:32:57;14.80;;;9.90;;
9473;SDS011;8865;47.636;7.692;2022-12-05T07:35:23;12.60;;;9.50;;
9473;SDS011;8865;47.636;7.692;2022-12-05T07:37:50;12.20;;;8.87;;
9473;SDS011;8865;47.636;7.692;2022-12-05T07:40:16;12.10;;;8.83;;
9473;SDS011;8865;47.636;7.692;2022-12-05T07:42:42;11.27;;;8.60;;
9473;SDS011;8865;47.636;7.692;2022-12-05T07:45:08;12.33;;;8.93;;
9473;SDS011;8865;47.636;7.692;2022-12-05T07:47:34;11.30;;;8.40;;
9473;SDS011;8865;47.636;7.692;2022-12-05T07:50:00;11.10;;;8.33;;
9473;SDS011;8865;47.636;7.692;2022-12-05T07:52:27;12.00;;;8.80;;
9473;SDS011;8865;47.636;7.692;2022-12-05T07:54:53;11.60;;;9.30;;
9473;SDS011;8865;47.636;7.692;2022-12-05T07:57:19;13.93;;;9.50;;
9473;SDS011;8865;47.636;7.692;2022-12-05T07:59:45;14.13;;;9.97;;
9473;SDS011;8865;47.636;7.692;2022-12-05T08:02:11;13.43;;;10.53;;
9473;SDS011;8865;47.636;7.692;2022-12-05T08:04:37;14.73;;;10.10;;
9473;SDS011;8865;47.636;7.692;2022-12-05T08:07:03;14.60;;;9.93;;
9473;SDS011;8865;47.636;7.692;2022-12-05T08:09:29;15.67;;;10.50;;
9473;SDS011;8865;47.636;7.692;2022-12-05T08:11:55;16.87;;;11.50;;
9473;SDS011;8865;47.636;7.692;2022-12-05T08:14:21;15.00;;;10.70;;
9473;SDS011;8865;47.636;7.692;2022-12-05T08:16:47;16.27;;;11.30;;
9473;SDS011;8865;47.636;7.692;2022-12-05T08:19:13;18.20;;;14.17;;
9473;SDS011;8865;47.636;7.692;2022-12-05T08:21:41;26.47;;;18.43;;
9473;SDS011;8865;47.636;7.692;2022-12-05T08:24:07;21.80;;;16.20;;
9473;SDS011;8865;47.636;7.692;2022-12-05T08:26:34;17.43;;;13.97;;
9473;SDS011;8865;47.636;7.692;2022-12-05T08:29:05;17.50;;;12.77;;
9473;SDS011;8865;47.636;7.692;2022-12-05T08:31:33;14.67;;;11.57;;
9473;SDS011;8865;47.636;7.692;2022-12-05T08:34:04;13.03;;;10.93;;
9473;SDS011;8865;47.636;7.692;2022-12-05T08:36:30;13.07;;;9.33;;
9473;SDS011;8865;47.636;7.692;2022-12-05T08:38:57;11.53;;;8.20;;
9473;SDS011;8865;47.636;7.692;2022-12-05T08:41:25;10.40;;;8.70;;
9473;SDS011;8865;47.636;7.692;2022-12-05T08:43:54;11.90;;;8.80;;
9473;SDS011;8865;47.636;7.692;2022-12-05T08:46:31;13.40;;;8.33;;
9473;SDS011;8865;47.636;7.692;2022-12-05T08:48:58;12.40;;;8.83;;
9473;SDS011;8865;47.636;7.692;2022-12-05T08:51:24;10.70;;;8.83;;
9473;SDS011;8865;47.636;7.692;2022-12-05T08:53:50;12.07;;;9.53;;
9473;SDS011;8865;47.636;7.692;2022-12-05T08:56:17;12.80;;;10.33;;
9473;SDS011;8865;47.636;7.692;2022-12-05T08:58:43;15.40;;;10.63;;
9473;SDS011;8865;47.636;7.692;2022-12-05T09:01:13;17.20;;;10.33;;
9473;SDS011;8865;47.636;7.692;2022-12-05T09:03:43;14.77;;;9.97;;
9473;SDS011;8865;47.636;7.692;2022-12-05T09:08:38;13.33;;;10.30;;
9473;SDS011;8865;47.636;7.692;2022-12-05T09:11:08;12.80;;;9.73;;
9473;SDS011;8865;47.636;7.692;2022-12-05T09:13:45;14.67;;;10.90;;
9473;SDS011;8865;47.636;7.692;2022-12-05T09:16:34;16.43;;;10.67;;
9473;SDS011;8865;47.636;7.692;2022-12-05T09:18:59;18.80;;;10.63;;
9473;SDS011;8865;47.636;7.692;2022-12-05T09:21:27;19.77;;;11.50;;
9473;SDS011;8865;47.636;7.692;2022-12-05T09:23:55;15.77;;;11.00;;
9473;SDS011;8865;47.636;7.692;2022-12-05T09:26:24;15.97;;;11.80;;
9473;SDS011;8865;47.636;7.692;2022-12-05T09:28:53;15.23;;;10.80;;
9473;SDS011;8865;47.636;7.692;2022-12-05T09:31:20;16.03;;;11.40;;
9473;SDS011;8865;47.636;7.692;2022-12-05T09:33:48;16.23;;;11.33;;
9473;SDS011;8865;47.636;7.692;2022-12-05T09:36:17;15.63;;;11.60;;
9473;SDS011;8865;47.636;7.692;2022-12-05T09:38:45;15.30;;;11.07;;
9473;SDS011;8865;47.636;7.692;2022-12-05T09:44:18;18.07;;;10.40;;
9473;SDS011;8865;47.636;7.692;2022-12-05T09:46:58;14.73;;;10.93;;
9473;SDS011;8865;47.636;7.692;2022-12-05T09:49:29;12.83;;;10.53;;
9473;SDS011;8865;47.636;7.692;2022-12-05T09:51:57;13.53;;;10.07;;
9473;SDS011;8865;47.636;7.692;2022-12-05T09:54:25;14.27;;;10.40;;
9473;SDS011;8865;47.636;7.692;2022-12-05T09:56:52;13.47;;;10.07;;
9473;SDS011;8865;47.636;7.692;2022-12-05T09:59:19;13.17;;;9.97;;
9473;SDS011;8865;47.636;7.692;2022-12-05T10:01:54;11.93;;;10.00;;
9473;SDS011;8865;47.636;7.692;2022-12-05T10:18:04;13.83;;;9.47;;
9473;SDS011;8865;47.636;7.692;2022-12-05T10:20:58;13.03;;;9.07;;
9473;SDS011;8865;47.636;7.692;2022-12-05T10:23:34;13.53;;;8.60;;
9473;SDS011;8865;47.636;7.692;2022-12-05T10:26:20;10.10;;;8.57;;
9473;SDS011;8865;47.636;7.692;2022-12-05T10:31:21;12.90;;;9.17;;
9473;SDS011;8865;47.636;7.692;2022-12-05T10:33:56;11.03;;;9.07;;
9473;SDS011;8865;47.636;7.692;2022-12-05T10:38:54;11.20;;;8.93;;
9473;SDS011;8865;47.636;7.692;2022-12-05T10:41:21;15.73;;;9.37;;
9473;SDS011;8865;47.636;7.692;2022-12-05T10:43:48;10.57;;;9.23;;
9473;SDS011;8865;47.636;7.692;2022-12-05T10:46:14;14.07;;;9.77;;
9473;SDS011;8865;47.636;7.692;2022-12-05T10:48:41;10.77;;;9.17;;
9473;SDS011;8865;47.636;7.692;2022-12-05T10:51:15;12.23;;;8.73;;
9473;SDS011;8865;47.636;7.692;2022-12-05T10:53:46;10.90;;;9.20;;
9473;SDS011;8865;47.636;7.692;2022-12-05T10:59:04;12.00;;;8.70;;
9473;SDS011;8865;47.636;7.692;2022-12-05T11:01:31;9.10;;;7.70;;
9473;SDS011;8865;47.636;7.692;2022-12-05T11:03:59;10.17;;;8.57;;
9473;SDS011;8865;47.636;7.692;2022-12-05T11:06:29;9.40;;;8.10;;
9473;SDS011;8865;47.636;7.692;2022-12-05T11:09:12;10.73;;;8.30;;
9473;SDS011;8865;47.636;7.692;2022-12-05T11:11:42;9.90;;;8.30;;
9473;SDS011;8865;47.636;7.692;2022-12-05T11:14:25;9.60;;;8.07;;
9473;SDS011;8865;47.636;7.692;2022-12-05T11:16:53;8.93;;;8.03;;
9473;SDS011;8865;47.636;7.692;2022-12-05T11:19:24;10.37;;;8.43;;
9473;SDS011;8865;47.636;7.692;2022-12-05T11:21:51;12.87;;;9.07;;
9473;SDS011;8865;47.636;7.692;2022-12-05T11:24:21;10.97;;;8.53;;
9473;SDS011;8865;47.636;7.692;2022-12-05T11:26:51;9.37;;;8.00;;
9473;SDS011;8865;47.636;7.692;2022-12-05T11:29:36;9.40;;;8.17;;
9473;SDS011;8865;47.636;7.692;2022-12-05T11:32:04;8.97;;;8.00;;
9473;SDS011;8865;47.636;7.692;2022-12-05T11:34:41;10.07;;;8.23;;
9473;SDS011;8865;47.636;7.692;2022-12-05T11:55:24;7.43;;;6.63;;
9473;SDS011;8865;47.636;7.692;2022-12-05T12:08:15;7.00;;;6.30;;
9473;SDS011;8865;47.636;7.692;2022-12-05T12:11:03;7.17;;;6.00;;
9473;SDS011;8865;47.636;7.692;2022-12-05T12:16:19;6.90;;;6.20;;
9473;SDS011;8865;47.636;7.692;2022-12-05T12:35:30;5.23;;;4.70;;
9473;SDS011;8865;47.636;7.692;2022-12-05T12:51:28;6.07;;;5.10;;
9473;SDS011;8865;47.636;7.692;2022-12-05T13:06:58;5.43;;;4.93;;
9473;SDS011;8865;47.636;7.692;2022-12-05T13:09:39;5.00;;;4.50;;
9473;SDS011;8865;47.636;7.692;2022-12-05T13:12:10;4.97;;;4.47;;
9473;SDS011;8865;47.636;7.692;2022-12-05T13:14:41;6.23;;;4.80;;
9473;SDS011;8865;47.636;7.692;2022-12-05T13:17:19;4.73;;;4.13;;
9473;SDS011;8865;47.636;7.692;2022-12-05T13:19:47;4.57;;;4.17;;
9473;SDS011;8865;47.636;7.692;2022-12-05T13:22:15;5.17;;;4.30;;
9473;SDS011;8865;47.636;7.692;2022-12-05T13:24:44;4.73;;;4.20;;
9473;SDS011;8865;47.636;7.692;2022-12-05T13:27:17;4.60;;;4.00;;
9473;SDS011;8865;47.636;7.692;2022-12-05T13:29:47;4.93;;;4.43;;
9473;SDS011;8865;47.636;7.692;2022-12-05T13:34:54;5.17;;;4.03;;
9473;SDS011;8865;47.636;7.692;2022-12-05T13:37:24;4.37;;;3.97;;
9473;SDS011;8865;47.636;7.692;2022-12-05T13:40:31;3.00;;;2.80;;
9473;SDS011;8865;47.636;7.692;2022-12-05T13:43:19;3.70;;;3.40;;
9473;SDS011;8865;47.636;7.692;2022-12-05T13:45:54;2.67;;;2.47;;
9473;SDS011;8865;47.636;7.692;2022-12-05T13:48:29;3.13;;;2.83;;
9473;SDS011;8865;47.636;7.692;2022-12-05T13:53:40;2.50;;;2.30;;
9473;SDS011;8865;47.636;7.692;2022-12-05T14:11:36;2.33;;;2.13;;
9473;SDS011;8865;47.636;7.692;2022-12-05T14:14:02;2.60;;;2.40;;
9473;SDS011;8865;47.636;7.692;2022-12-05T14:18:57;2.73;;;2.53;;
9473;SDS011;8865;47.636;7.692;2022-12-05T14:21:46;3.47;;;2.50;;
9473;SDS011;8865;47.636;7.692;2022-12-05T14:24:31;2.60;;;2.40;;
9473;SDS011;8865;47.636;7.692;2022-12-05T14:32:26;3.03;;;2.63;;
9473;SDS011;8865;47.636;7.692;2022-12-05T14:38:21;3.40;;;3.10;;
9473;SDS011;8865;47.636;7.692;2022-12-05T14:40:31;3.90;;;3.40;;
9473;SDS011;8865;47.636;7.692;2022-12-05T14:50:46;4.23;;;3.57;;
9473;SDS011;8865;47.636;7.692;2022-12-05T14:58:30;4.77;;;3.77;;
9473;SDS011;8865;47.636;7.692;2022-12-05T15:01:07;4.30;;;3.40;;
9473;SDS011;8865;47.636;7.692;2022-12-05T15:03:41;4.90;;;4.10;;
9473;SDS011;8865;47.636;7.692;2022-12-05T15:06:23;5.87;;;4.20;;
9473;SDS011;8865;47.636;7.692;2022-12-05T15:08:51;7.03;;;4.77;;
9473;SDS011;8865;47.636;7.692;2022-12-05T15:11:22;5.13;;;4.07;;
9473;SDS011;8865;47.636;7.692;2022-12-05T15:13:57;5.73;;;4.60;;
9473;SDS011;8865;47.636;7.692;2022-12-05T15:16:28;5.20;;;4.70;;
9473;SDS011;8865;47.636;7.692;2022-12-05T15:18:59;5.17;;;4.30;;
9473;SDS011;8865;47.636;7.692;2022-12-05T15:21:32;5.30;;;4.40;;
9473;SDS011;8865;47.636;7.692;2022-12-05T15:24:12;4.60;;;4.20;;
9473;SDS011;8865;47.636;7.692;2022-12-05T15:26:42;4.40;;;3.90;;
9473;SDS011;8865;47.636;7.692;2022-12-05T15:31:46;5.10;;;4.60;;
9473;SDS011;8865;47.636;7.692;2022-12-05T15:34:17;7.10;;;6.40;;
9473;SDS011;8865;47.636;7.692;2022-12-05T15:37:08;10.13;;;9.20;;
9473;SDS011;8865;47.636;7.692;2022-12-05T15:42:25;6.50;;;5.80;;
9473;SDS011;8865;47.636;7.692;2022-12-05T15:45:16;5.47;;;4.97;;
9473;SDS011;8865;47.636;7.692;2022-12-05T15:47:40;7.00;;;5.00;;
9473;SDS011;8865;47.636;7.692;2022-12-05T15:58:55;5.97;;;5.13;;
9473;SDS011;8865;47.636;7.692;2022-12-05T16:01:27;5.13;;;4.63;;
9473;SDS011;8865;47.636;7.692;2022-12-05T16:03:55;6.13;;;5.20;;
9473;SDS011;8865;47.636;7.692;2022-12-05T16:06:32;6.37;;;4.97;;
9473;SDS011;8865;47.636;7.692;2022-12-05T16:09:06;5.90;;;4.60;;
9473;SDS011;8865;47.636;7.692;2022-12-05T16:11:34;5.57;;;4.87;;
9473;SDS011;8865;47.636;7.692;2022-12-05T16:14:01;5.30;;;4.80;;
9473;SDS011;8865;47.636;7.692;2022-12-05T16:16:33;5.50;;;4.90;;
9473;SDS011;8865;47.636;7.692;2022-12-05T16:19:03;5.77;;;4.77;;
9473;SDS011;8865;47.636;7.692;2022-12-05T16:21:38;5.60;;;5.00;;
9473;SDS011;8865;47.636;7.692;2022-12-05T16:24:19;5.37;;;4.40;;
9473;SDS011;8865;47.636;7.692;2022-12-05T16:27:30;6.67;;;4.60;;
9473;SDS011;8865;47.636;7.692;2022-12-05T16:29:41;5.73;;;5.07;;
9473;SDS011;8865;47.636;7.692;2022-12-05T16:32:17;5.80;;;5.23;;
9473;SDS011;8865;47.636;7.692;2022-12-05T16:34:47;5.53;;;4.67;;
9473;SDS011;8865;47.636;7.692;2022-12-05T16:37:17;5.70;;;5.10;;
9473;SDS011;8865;47.636;7.692;2022-12-05T16:39:51;8.67;;;6.77;;
9473;SDS011;8865;47.636;7.692;2022-12-05T16:42:20;12.53;;;9.57;;
9473;SDS011;8865;47.636;7.692;2022-12-05T16:45:08;8.77;;;7.30;;
9473;SDS011;8865;47.636;7.692;2022-12-05T16:47:57;7.63;;;6.23;;
9473;SDS011;8865;47.636;7.692;2022-12-05T16:50:27;7.83;;;6.53;;
9473;SDS011;8865;47.636;7.692;2022-12-05T16:52:59;7.47;;;6.50;;
9473;SDS011;8865;47.636;7.692;2022-12-05T16:55:38;6.90;;;5.80;;
9473;SDS011;8865;47.636;7.692;2022-12-05T16:58:10;7.10;;;5.97;;
9473;SDS011;8865;47.636;7.692;2022-12-05T17:00:39;7.57;;;6.87;;
9473;SDS011;8865;47.636;7.692;2022-12-05T17:03:08;7.90;;;7.10;;
9473;SDS011;8865;47.636;7.692;2022-12-05T17:05:38;7.90;;;7.10;;
9473;SDS011;8865;47.636;7.692;2022-12-05T17:08:04;9.07;;;7.63;;
9473;SDS011;8865;47.636;7.692;2022-12-05T17:10:31;8.83;;;7.50;;
9473;SDS011;8865;47.636;7.692;2022-12-05T17:12:57;8.23;;;6.83;;
9473;SDS011;8865;47.636;7.692;2022-12-05T17:15:27;7.93;;;6.23;;
9473;SDS011;8865;47.636;7.692;2022-12-05T17:17:54;5.80;;;5.20;;
9473;SDS011;8865;47.636;7.692;2022-12-05T17:20:20;6.93;;;6.03;;
9473;SDS011;8865;47.636;7.692;2022-12-05T17:22:46;13.60;;;10.17;;
9473;SDS011;8865;47.636;7.692;2022-12-05T17:25:31;7.73;;;6.20;;
9473;SDS011;8865;47.636;7.692;2022-12-05T17:28:01;9.27;;;6.57;;
9473;SDS011;8865;47.636;7.692;2022-12-05T17:30:27;7.03;;;6.07;;
9473;SDS011;8865;47.636;7.692;2022-12-05T17:32:53;10.57;;;6.90;;
9473;SDS011;8865;47.636;7.692;2022-12-05T17:35:20;8.60;;;6.47;;
9473;SDS011;8865;47.636;7.692;2022-12-05T17:37:47;6.37;;;5.73;;
9473;SDS011;8865;47.636;7.692;2022-12-05T17:40:14;7.97;;;6.03;;
9473;SDS011;8865;47.636;7.692;2022-12-05T17:42:40;7.47;;;5.90;;
9473;SDS011;8865;47.636;7.692;2022-12-05T17:45:08;7.77;;;5.47;;
9473;SDS011;8865;47.636;7.692;2022-12-05T17:47:37;7.03;;;5.37;;
9473;SDS011;8865;47.636;7.692;2022-12-05T17:50:03;8.40;;;5.03;;
9473;SDS011;8865;47.636;7.692;2022-12-05T17:52:30;8.57;;;5.97;;
9473;SDS011;8865;47.636;7.692;2022-12-05T17:54:57;9.43;;;5.97;;
9473;SDS011;8865;47.636;7.692;2022-12-05T17:57:23;11.43;;;7.50;;
9473;SDS011;8865;47.636;7.692;2022-12-05T18:02:17;7.50;;;6.60;;
9473;SDS011;8865;47.636;7.692;2022-12-05T18:04:44;7.53;;;6.70;;
9473;SDS011;8865;47.636;7.692;2022-12-05T18:07:11;11.10;;;8.40;;
9473;SDS011;8865;47.636;7.692;2022-12-05T18:09:36;10.27;;;8.27;;
9473;SDS011;8865;47.636;7.692;2022-12-05T18:12:03;15.27;;;12.10;;
9473;SDS011;8865;47.636;7.692;2022-12-05T18:14:29;13.87;;;10.87;;
9473;SDS011;8865;47.636;7.692;2022-12-05T18:16:55;10.23;;;9.13;;
9473;SDS011;8865;47.636;7.692;2022-12-05T18:19:21;9.90;;;8.23;;
9473;SDS011;8865;47.636;7.692;2022-12-05T18:21:47;9.03;;;8.03;;
9473;SDS011;8865;47.636;7.692;2022-12-05T18:24:13;9.13;;;6.87;;
9473;SDS011;8865;47.636;7.692;2022-12-05T18:26:39;7.07;;;6.17;;
9473;SDS011;8865;47.636;7.692;2022-12-05T18:29:05;8.43;;;6.63;;
9473;SDS011;8865;47.636;7.692;2022-12-05T18:31:30;7.87;;;6.10;;
9473;SDS011;8865;47.636;7.692;2022-12-05T18:33:57;9.50;;;7.17;;
9473;SDS011;8865;47.636;7.692;2022-12-05T18:36:23;8.23;;;6.77;;